createdAt,value
2018-04-25T00:00:59.792Z,246
2018-04-25T00:02:06.992Z,246
2018-04-25T00:03:13.964Z,246
2018-04-25T00:04:21.165Z,246
2018-04-25T00:05:28.370Z,246
2018-04-25T00:06:35.598Z,247
2018-04-25T00:07:42.794Z,248
2018-04-25T00:08:49.720Z,248
2018-04-25T00:09:56.917Z,248
2018-04-25T00:11:03.843Z,248
2018-04-25T00:12:11.040Z,248
2018-04-25T00:13:18.240Z,248
2018-04-25T00:14:25.450Z,249
2018-04-25T00:15:32.653Z,249
2018-04-25T00:16:39.851Z,249
2018-04-25T00:17:47.054Z,249
2018-04-25T00:18:54.256Z,249
2018-04-25T00:20:01.461Z,249
2018-04-25T00:21:08.662Z,249
2018-04-25T00:22:15.865Z,249
2018-04-25T00:23:23.072Z,248
2018-04-25T00:24:30.434Z,248
2018-04-25T00:25:37.662Z,248
2018-04-25T00:26:44.862Z,248
2018-04-25T00:27:52.060Z,249
2018-04-25T00:28:59.263Z,249
2018-04-25T00:30:06.469Z,249
2018-04-25T00:31:13.672Z,249
2018-04-25T00:32:20.598Z,249
2018-04-25T00:33:27.807Z,249
2018-04-25T00:34:35.016Z,249
2018-04-25T00:35:41.945Z,248
2018-04-25T00:36:49.145Z,249
2018-04-25T00:37:56.375Z,249
2018-04-25T00:39:03.576Z,248
2018-04-25T00:40:10.502Z,248
2018-04-25T00:41:17.431Z,249
2018-04-25T00:42:24.627Z,248
2018-04-25T00:43:31.558Z,248
2018-04-25T00:44:38.759Z,248
2018-04-25T00:45:46.186Z,248
2018-04-25T00:46:53.443Z,248
2018-04-25T00:48:00.640Z,248
2018-04-25T00:49:07.786Z,248
2018-04-25T00:50:14.779Z,248
2018-04-25T00:51:21.703Z,248
2018-04-25T00:52:28.902Z,248
2018-04-25T00:53:36.102Z,248
2018-04-25T00:54:43.517Z,247
2018-04-25T00:55:50.719Z,247
2018-04-25T00:56:57.920Z,247
2018-04-25T00:58:04.858Z,247
2018-04-25T00:59:12.056Z,246
2018-04-25T01:00:18.980Z,247
2018-04-25T01:01:26.180Z,247
2018-04-25T01:02:33.382Z,247
2018-04-25T01:03:40.582Z,247
2018-04-25T01:04:47.786Z,246
2018-04-25T01:05:54.985Z,246
2018-04-25T01:07:02.184Z,247
2018-04-25T01:08:09.111Z,247
2018-04-25T01:09:16.043Z,247
2018-04-25T01:10:23.241Z,246
2018-04-25T01:11:30.446Z,246
2018-04-25T01:12:37.653Z,246
2018-04-25T01:13:44.849Z,246
2018-04-25T01:14:52.049Z,246
2018-04-25T01:15:59.252Z,246
2018-04-25T01:17:06.458Z,245
2018-04-25T01:18:13.664Z,245
2018-04-25T01:19:20.857Z,245
2018-04-25T01:20:28.064Z,246
2018-04-25T01:21:35.255Z,246
2018-04-25T01:22:42.461Z,246
2018-04-25T01:23:49.666Z,246
2018-04-25T01:24:56.865Z,246
2018-04-25T01:26:04.062Z,246
2018-04-25T01:27:10.996Z,245
2018-04-25T01:28:18.194Z,244
2018-04-25T01:29:25.391Z,245
2018-04-25T01:30:32.594Z,245
2018-04-25T01:31:39.797Z,245
2018-04-25T01:32:47.000Z,245
2018-04-25T01:33:54.200Z,245
2018-04-25T01:35:01.401Z,245
2018-04-25T01:36:08.599Z,245
2018-04-25T01:37:15.807Z,244
2018-04-25T01:38:23.007Z,244
2018-04-25T01:39:30.212Z,244
2018-04-25T01:40:37.413Z,244
2018-04-25T01:41:44.611Z,244
2018-04-25T01:42:51.532Z,244
2018-04-25T01:43:58.456Z,243
2018-04-25T01:45:05.656Z,244
2018-04-25T01:46:12.919Z,244
2018-04-25T01:47:20.125Z,244
2018-04-25T01:48:27.323Z,243
2018-04-25T01:49:34.257Z,243
2018-04-25T01:50:41.457Z,244
2018-04-25T01:51:48.655Z,243
2018-04-25T01:52:55.859Z,243
2018-04-25T01:54:03.055Z,243
2018-04-25T01:55:10.257Z,244
2018-04-25T22:00:07.187Z,248
2018-04-25T22:01:14.393Z,231
2018-04-25T22:02:21.601Z,228
2018-04-25T22:03:28.526Z,227
2018-04-25T22:04:35.729Z,227
2018-04-25T22:05:42.936Z,227
2018-04-25T22:06:49.865Z,227
2018-04-25T22:07:57.067Z,227
2018-04-25T22:09:03.995Z,227
2018-04-25T22:10:11.212Z,226
2018-04-25T22:11:18.136Z,226
2018-04-25T22:12:25.335Z,226
2018-04-25T22:13:32.536Z,226
2018-04-25T22:14:39.737Z,226
2018-04-25T22:15:46.667Z,226
2018-04-25T22:16:53.875Z,226
2018-04-25T22:18:00.798Z,226
2018-04-25T22:19:08.007Z,226
2018-04-25T22:20:15.206Z,227
2018-04-25T22:21:22.415Z,228
2018-04-25T22:22:29.611Z,229
2018-04-25T22:23:36.815Z,229
2018-04-25T22:24:44.020Z,229
2018-04-25T22:25:51.224Z,229
2018-04-25T22:26:58.430Z,229
2018-04-25T22:28:05.633Z,229
2018-04-25T22:29:12.834Z,229
2018-04-25T22:30:20.038Z,231
2018-04-25T22:31:27.244Z,230
2018-04-25T22:32:34.446Z,229
2018-04-25T22:33:41.653Z,228
2018-04-25T22:34:48.855Z,227
2018-04-25T22:35:56.053Z,227
2018-04-25T22:37:02.982Z,227
2018-04-25T22:38:10.188Z,227
2018-04-25T22:39:17.395Z,227
2018-04-25T22:40:24.598Z,227
2018-04-25T22:41:31.528Z,226
2018-04-25T22:42:38.733Z,227
2018-04-25T22:43:45.936Z,227
2018-04-25T22:44:52.864Z,228
2018-04-25T22:46:00.072Z,231
2018-04-25T22:47:07.275Z,236
2018-04-25T22:48:14.474Z,236
2018-04-25T22:49:21.673Z,237
2018-04-25T22:50:28.872Z,236
2018-04-25T22:51:36.084Z,236
2018-04-25T22:52:43.009Z,236
2018-04-25T22:53:50.220Z,235
2018-04-25T22:54:57.423Z,235
2018-04-25T22:56:04.627Z,235
2018-04-25T22:57:11.822Z,235
2018-04-25T22:58:19.027Z,238
2018-04-25T22:59:26.247Z,238
2018-04-25T23:00:33.180Z,237
2018-04-25T23:01:40.384Z,237
2018-04-25T23:02:47.320Z,237
2018-04-25T23:03:54.522Z,237
2018-04-25T23:05:01.724Z,237
2018-04-25T23:06:08.929Z,236
2018-04-25T23:07:16.132Z,236
2018-04-25T23:08:23.593Z,237
2018-04-25T23:09:30.882Z,236
2018-04-25T23:10:38.084Z,237
2018-04-25T23:11:45.356Z,237
2018-04-25T23:12:52.561Z,237
2018-04-25T23:13:59.767Z,237
2018-04-25T23:15:07.028Z,237
2018-04-25T23:16:14.228Z,238
2018-04-25T23:17:21.427Z,238
2018-04-25T23:18:28.635Z,238
2018-04-25T23:19:35.832Z,237
2018-04-25T23:20:43.036Z,238
2018-04-25T23:21:50.240Z,238
2018-04-25T23:22:57.189Z,237
2018-04-25T23:24:04.389Z,237
2018-04-25T23:25:11.589Z,237
2018-04-25T23:26:18.786Z,237
2018-04-25T23:27:26.015Z,238
2018-04-25T23:28:33.224Z,238
2018-04-25T23:29:40.421Z,237
2018-04-25T23:30:47.624Z,238
2018-04-25T23:31:54.832Z,237
2018-04-25T23:33:02.033Z,238
2018-04-25T23:34:09.244Z,237
2018-04-25T23:35:16.523Z,237
2018-04-25T23:36:23.729Z,237
2018-04-25T23:37:30.944Z,237
2018-04-25T23:38:37.877Z,237
2018-04-25T23:39:45.078Z,237
2018-04-25T23:40:52.275Z,237
2018-04-25T23:41:59.473Z,237
2018-04-25T23:43:06.401Z,237
2018-04-25T23:44:13.666Z,237
2018-04-25T23:45:20.867Z,238
2018-04-25T23:46:28.070Z,238
2018-04-25T23:47:34.989Z,238
2018-04-25T23:48:42.193Z,238
2018-04-25T23:49:49.398Z,239
2018-04-25T23:50:56.601Z,239
2018-04-25T23:52:03.798Z,239
2018-04-25T23:53:10.733Z,239
2018-04-25T23:54:17.937Z,240
2018-04-25T23:55:24.863Z,240
2018-04-25T23:56:32.066Z,239
2018-04-25T23:57:39.266Z,240
2018-04-25T23:58:46.196Z,240
2018-04-25T23:59:53.398Z,240
